• Join FlightAware (Why Join?)
  • Login
  • US Flag 
10:33PM EST


 

Airport Tracker/Info


-or-


 

Live Flight TrackerFlight Track Log ✈ CTL61 ✈ 22-Apr-2013 ✈ KCRW - KOSU

Flight Track Log - Related Links

Times and Time Zones

All times are in EDT time to prevent confusion due to time zone crossing. See the CTL61 flight status page for this flight to view local times or setup timezone preferences in your user account.

Time Position Orientation Groundspeed Altitude Reporting Facility
EDT Latitude Longitude Course Direction KTS MPH feet Rate Location/Type
12:05AM 38.4519 -81.6803 330° Northwest 136 157 4,500  Level Indianapolis Center
12:06AM 38.4842 -81.7022 332° Northwest 132 152 5,300 780 Climbing Indianapolis Center
12:07AM 38.5167 -81.7242 332° Northwest 132 152 6,100 360 Climbing Indianapolis Center
12:08AM 38.6001 -81.7820 327° Northwest  Level FlightAware Approximate
12:08AM 38.5519 -81.7531 327° Northwest 143 165 6,100  Level Indianapolis Center
12:09AM 38.6391 -81.8150 327° Northwest  Level FlightAware Approximate
12:09AM 38.5900 -81.7881 324° Northwest 162 186 6,000  Level Indianapolis Center
12:10AM 38.6283 -81.8206 326° Northwest 164 189 6,100  Climbing Indianapolis Center
12:11AM 38.6675 -81.8550 326° Northwest 169 194 6,100  Level Indianapolis Center
12:12AM 38.7072 -81.8867 328° Northwest 167 192 6,100  Level Indianapolis Center
12:13AM 38.7464 -81.9203 326° Northwest 168 193 6,100  Level Indianapolis Center
12:14AM 38.7853 -81.9539 326° Northwest 169 194 6,100  Level Indianapolis Center
12:15AM 38.8336 -81.9925 328° Northwest 170 196 6,100  Level Indianapolis Center
12:16AM 38.8728 -82.0264 326° Northwest 170 196 6,100  Level Indianapolis Center
12:17AM 38.9131 -82.0589 328° Northwest 170 196 6,100  Level Indianapolis Center
12:18AM 38.9539 -82.0914 328° Northwest 172 198 6,100  Level Indianapolis Center
12:19AM 38.9942 -82.1253 327° Northwest 173 199 6,100 -60 Level Indianapolis Center
12:20AM 39.0342 -82.1594 326° Northwest 173 199 6,000 -60 Descending Indianapolis Center
12:21AM 39.0739 -82.1942 326° Northwest 171 197 6,000  Level Indianapolis Center
12:22AM 39.1131 -82.2283 326° Northwest 171 197 6,000  Level Indianapolis Center
12:23AM 39.1536 -82.2625 327° Northwest 173 199 6,000  Level Indianapolis Center
12:24AM 39.1950 -82.2978 327° Northwest 176 203 6,000  Level Indianapolis Center
12:25AM 39.2353 -82.3325 326° Northwest 176 203 6,000  Level Indianapolis Center
12:26AM 39.2753 -82.3683 325° Northwest 174 200 6,000  Level Indianapolis Center
12:27AM 39.3161 -82.4011 328° Northwest 173 199 6,000  Level Indianapolis Center
12:28AM 39.3539 -82.4325 327° Northwest 173 199 6,000  Level Indianapolis Center
12:28AM 39.3678 -82.4447 326° Northwest 172 198 6,000  Level Indianapolis Center
12:29AM 39.3958 -82.4706 325° Northwest 172 198 6,000  Level Indianapolis Center
12:30AM 39.4386 -82.5050 328° Northwest 170 196 6,000  Level Indianapolis Center
12:31AM 39.4808 -82.5406 327° Northwest 170 196 6,000  Level Indianapolis Center
12:32AM 39.5181 -82.5731 326° Northwest 169 194 6,000  Level Indianapolis Center
12:33AM 39.5600 -82.6114 325° Northwest 166 191 6,000  Level Indianapolis Center
12:34AM 39.5978 -82.6425 328° Northwest 171 197 6,000  Level Indianapolis Center
12:35AM 39.6367 -82.6761 326° Northwest 167 192 6,000  Level Indianapolis Center
12:36AM 39.6747 -82.7106 325° Northwest 170 196 6,000  Level Indianapolis Center
12:37AM 39.7144 -82.7447 327° Northwest 172 198 6,000 -240 Level Indianapolis Center
12:38AM 39.7536 -82.7817 324° Northwest 177 204 5,600 -480 Descending Indianapolis Center
12:39AM 39.8006 -82.8225 326° Northwest 185 213 5,000 -600 Descending Indianapolis Center
12:40AM 39.8436 -82.8622 325° Northwest 188 216 4,400 -540 Descending Indianapolis Center
12:41AM 39.8881 -82.9008 326° Northwest 189 217 4,000 -300 Descending Indianapolis Center
12:42AM 39.9294 -82.9403 324° Northwest 187 215 3,900 -120 Descending Indianapolis Center
12:44AM 39.9740 -82.9808 325° Northwest  Level FlightAware Approximate
12:51AM 40.0667 -83.0667 323° Northwest  Level FlightAware Approximate
12:52AM 40.0798 -83.0732 323° Northwest  Level Estimated
12:53AM 40.0798 -83.0732 323° Northwest  Level Estimated